createdAt,value
2018-07-27T09:46:45.717Z,26.30
2018-07-27T09:49:13.077Z,29.00
2018-07-27T09:51:40.503Z,33.40
2018-07-27T09:54:07.756Z,37.40
2018-07-27T09:56:35.321Z,39.60
2018-07-27T09:59:02.890Z,40.60
2018-07-27T10:01:30.747Z,40.50
2018-07-27T10:03:58.173Z,40.20
2018-07-27T10:06:25.869Z,39.60
2018-07-27T10:08:53.467Z,38.80
2018-07-27T10:11:21.158Z,38.10
2018-07-27T10:13:48.562Z,37.20
2018-07-27T10:16:15.910Z,36.30
2018-07-27T10:18:43.253Z,35.70
2018-07-27T10:21:10.580Z,35.40
2018-07-27T10:23:38.013Z,35.20
2018-07-27T10:26:05.649Z,35.00
2018-07-27T10:28:33.465Z,34.60
2018-07-27T10:31:01.413Z,34.40
2018-07-27T10:33:29.322Z,34.20
2018-07-27T10:35:56.697Z,33.80
2018-07-27T10:38:24.110Z,33.70
2018-07-27T10:40:51.716Z,33.60
2018-07-27T10:43:23.068Z,33.60
2018-07-27T10:45:50.424Z,33.60
2018-07-27T10:48:17.757Z,33.50
2018-07-27T10:50:45.067Z,33.20
2018-07-27T10:53:12.392Z,33.20
2018-07-27T10:55:39.728Z,33.20
2018-07-27T10:58:07.165Z,33.30
2018-07-27T11:00:34.620Z,33.20
2018-07-27T11:03:02.458Z,33.20
2018-07-27T11:05:30.205Z,33.20
2018-07-27T11:07:57.601Z,33.20
2018-07-27T11:10:28.542Z,33.20
2018-07-27T11:12:55.989Z,33.30
2018-07-27T11:15:23.460Z,33.30
2018-07-27T11:17:51.250Z,33.50
2018-07-27T11:20:18.552Z,33.50
2018-07-27T11:22:45.900Z,33.60
2018-07-27T11:25:13.240Z,33.50
2018-07-27T11:27:40.581Z,33.50
2018-07-27T11:30:08.079Z,33.40
2018-07-27T11:32:35.516Z,33.10
2018-07-27T11:35:03.242Z,33.20
2018-07-27T11:37:30.877Z,33.30
2018-07-27T11:39:58.222Z,33.40
2018-07-27T11:42:25.659Z,33.50
2018-07-27T11:44:53.124Z,33.50
2018-07-27T11:47:20.557Z,33.40
2018-07-27T11:49:47.888Z,33.40
2018-07-27T11:52:15.208Z,33.50
2018-07-27T11:54:42.584Z,33.60
2018-07-27T11:57:10.053Z,33.60
2018-07-27T11:59:37.607Z,33.60
2018-07-27T12:02:05.106Z,33.70
2018-07-27T12:04:32.918Z,33.90
2018-07-27T12:07:00.653Z,34.00
2018-07-27T12:09:28.077Z,33.90
2018-07-27T12:11:55.408Z,34.00
2018-07-27T12:14:22.887Z,33.90
2018-07-27T12:16:50.128Z,33.90
2018-07-27T12:19:17.480Z,33.90
2018-07-27T12:21:45.062Z,33.90
2018-07-27T12:24:12.144Z,33.90
2018-07-27T12:26:39.572Z,34.00
2018-07-27T12:29:07.186Z,34.10
2018-07-27T12:31:34.692Z,34.10
2018-07-27T12:34:02.418Z,34.10
2018-07-27T12:36:30.173Z,34.10
2018-07-27T12:38:57.649Z,34.20
2018-07-27T12:41:24.918Z,34.30
2018-07-27T12:43:52.256Z,34.40
2018-07-27T12:46:19.584Z,34.30
2018-07-27T12:48:46.941Z,34.20
2018-07-27T12:51:14.256Z,34.40
2018-07-27T12:53:41.568Z,34.40
2018-07-27T12:56:13.276Z,34.60
2018-07-27T12:58:40.601Z,35.20
2018-07-27T13:01:07.954Z,35.80
2018-07-27T13:03:35.593Z,36.10
2018-07-27T13:06:03.457Z,36.60
2018-07-27T13:08:31.207Z,37.10
2018-07-27T13:10:58.972Z,36.90
2018-07-27T13:13:26.413Z,36.40
2018-07-27T13:15:53.757Z,35.90
2018-07-27T13:18:21.324Z,35.60
2018-07-27T13:20:54.359Z,35.20
2018-07-27T13:23:22.140Z,35.90
2018-07-27T13:26:26.912Z,37.80
2018-07-27T13:28:39.844Z,40.30
2018-07-27T13:31:07.528Z,42.50
2018-07-27T13:33:35.198Z,44.00
2018-07-27T13:36:04.501Z,45.20
2018-07-27T13:38:32.228Z,46.20
2018-07-27T13:40:59.741Z,47.30
2018-07-27T13:43:27.188Z,48.00
2018-07-27T13:45:54.569Z,48.30
2018-07-27T13:48:21.944Z,48.60
2018-07-27T13:50:49.532Z,48.90
2018-07-27T13:53:17.010Z,49.10
2018-07-27T13:55:44.336Z,48.80
2018-07-27T13:58:11.672Z,47.50
2018-07-27T14:00:39.062Z,46.20
2018-07-27T14:03:06.464Z,46.00
2018-07-27T14:05:33.913Z,45.70
2018-07-27T14:08:01.407Z,45.80
2018-07-27T14:10:28.792Z,46.70
2018-07-27T14:12:56.253Z,47.90
2018-07-27T14:15:23.636Z,47.90
2018-07-27T14:17:50.992Z,47.90
2018-07-27T14:20:18.345Z,47.90
2018-07-27T14:22:45.725Z,47.30
2018-07-27T14:25:13.054Z,46.80
2018-07-27T14:27:40.388Z,47.00
2018-07-27T14:30:07.859Z,47.10
2018-07-27T14:32:35.236Z,46.90
2018-07-27T14:35:02.761Z,46.60
2018-07-27T14:37:30.501Z,46.40
2018-07-27T14:39:57.952Z,46.40
2018-07-27T14:42:25.276Z,46.50
2018-07-27T14:44:53.144Z,46.40
2018-07-27T14:47:20.697Z,46.60
2018-07-27T14:49:48.034Z,46.40
2018-07-27T14:52:15.471Z,46.30
2018-07-27T14:54:42.721Z,46.50
2018-07-27T14:57:10.026Z,46.60
2018-07-27T14:59:37.376Z,46.40
2018-07-27T15:02:05.177Z,46.50
2018-07-27T15:04:33.448Z,46.00
2018-07-27T15:09:29.260Z,44.30
2018-07-27T15:11:56.598Z,43.50
2018-07-27T15:14:23.952Z,42.40
2018-07-27T15:16:51.332Z,41.10
2018-07-27T15:19:18.865Z,39.90
2018-07-27T15:21:46.240Z,39.40
2018-07-27T15:24:13.648Z,38.80
2018-07-27T15:29:08.365Z,37.10
2018-07-27T15:31:35.887Z,36.60
2018-07-27T15:34:03.621Z,36.10
2018-07-27T15:36:32.194Z,35.70
2018-07-27T15:39:00.668Z,35.40
2018-07-27T15:41:28.328Z,35.60
2018-07-27T15:43:56.504Z,36.10
2018-07-27T15:46:23.845Z,36.70
2018-07-27T15:48:51.358Z,36.90
2018-07-27T15:51:18.836Z,37.20
2018-07-27T15:53:46.228Z,37.30
2018-07-27T15:56:13.548Z,37.60
2018-07-27T15:58:40.904Z,37.60
2018-07-27T16:01:08.248Z,37.40
2018-07-27T16:03:35.728Z,37.30
2018-07-27T16:10:58.448Z,37.30
2018-07-27T16:13:25.915Z,37.10
2018-07-27T16:15:53.240Z,36.90
2018-07-27T16:18:20.769Z,36.80
2018-07-27T16:20:48.136Z,36.60
2018-07-27T16:23:15.590Z,36.60
2018-07-27T16:25:43.008Z,36.40
2018-07-27T16:28:10.336Z,36.30
2018-07-27T16:30:37.720Z,36.10
2018-07-27T16:33:05.250Z,35.90
2018-07-27T16:35:32.878Z,35.70
2018-07-27T16:38:00.427Z,35.40
2018-07-27T16:40:28.031Z,35.20
2018-07-27T16:42:55.381Z,35.20
2018-07-27T16:45:22.736Z,35.10
2018-07-27T16:47:50.071Z,34.90
2018-07-27T16:50:17.480Z,34.60
2018-07-27T16:52:44.812Z,34.50
2018-07-27T16:55:12.152Z,34.40
2018-07-27T16:57:39.497Z,34.20
2018-07-27T17:00:06.849Z,34.00
2018-07-27T17:02:34.302Z,33.90
2018-07-27T17:05:02.178Z,33.70
2018-07-27T17:07:30.225Z,33.60
2018-07-27T17:09:57.871Z,33.50
2018-07-27T17:12:25.228Z,33.40
2018-07-27T17:14:52.572Z,33.20
2018-07-27T17:17:20.128Z,33.10
2018-07-27T17:19:51.288Z,33.10
2018-07-27T17:22:18.629Z,33.10
2018-07-27T17:24:46.009Z,33.00
2018-07-27T17:27:13.340Z,33.00
2018-07-27T17:29:40.656Z,33.00
2018-07-27T17:32:07.985Z,33.10
2018-07-27T17:34:35.535Z,33.10
2018-07-27T17:37:03.452Z,33.10
2018-07-27T17:39:30.907Z,33.00
2018-07-27T17:41:58.246Z,32.80
2018-07-27T17:44:25.585Z,32.90
2018-07-27T17:46:52.969Z,33.00
2018-07-27T17:49:20.575Z,33.00
2018-07-27T17:51:47.928Z,33.00
2018-07-27T17:54:15.252Z,32.90
2018-07-27T17:56:42.609Z,32.80
2018-07-27T17:59:09.937Z,32.80
2018-07-27T18:01:37.449Z,32.70
2018-07-27T18:04:05.610Z,32.70
2018-07-27T18:06:33.879Z,32.60
2018-07-27T18:09:02.140Z,32.50
2018-07-27T18:11:30.885Z,32.40
2018-07-27T18:13:58.333Z,32.40
2018-07-27T18:16:25.676Z,32.20
2018-07-27T18:18:53.130Z,32.20
2018-07-27T18:21:20.683Z,32.20
2018-07-27T18:23:48.099Z,32.20
2018-07-27T18:26:16.907Z,32.10
2018-07-27T18:28:44.252Z,32.10
2018-07-27T18:33:38.904Z,32.00
2018-07-27T18:36:06.725Z,31.90
2018-07-27T18:38:34.440Z,31.90
2018-07-27T18:41:02.205Z,31.80
2018-07-27T18:43:29.913Z,31.70
2018-07-27T18:45:57.512Z,31.70
2018-07-27T18:48:24.833Z,31.50
2018-07-27T18:50:52.292Z,31.40
2018-07-27T18:53:19.772Z,31.30
2018-07-27T18:55:47.097Z,31.20
2018-07-27T18:58:14.436Z,31.10
2018-07-27T19:00:41.733Z,31.10
2018-07-27T19:03:09.064Z,30.90
2018-07-27T19:05:36.740Z,30.80
2018-07-27T19:08:04.742Z,30.80
2018-07-27T19:10:32.437Z,30.70
2018-07-27T19:13:00.316Z,30.50
2018-07-27T19:15:27.708Z,30.40
2018-07-27T19:17:55.043Z,30.30
2018-07-27T19:20:22.576Z,30.20
2018-07-27T19:22:50.401Z,30.10
2018-07-27T19:25:17.801Z,30.00
2018-07-27T19:27:45.121Z,29.90
2018-07-27T19:32:40.100Z,29.80
2018-07-27T19:35:07.520Z,29.80
2018-07-27T19:37:35.031Z,29.70
2018-07-27T19:40:02.498Z,29.60
2018-07-27T19:42:30.193Z,29.60
2018-07-27T19:44:57.575Z,29.50
2018-07-27T19:47:24.952Z,29.40
2018-07-27T19:49:52.305Z,29.30
2018-07-27T19:52:19.809Z,29.30
2018-07-27T19:54:47.144Z,29.20
2018-07-27T19:57:14.485Z,29.00
2018-07-27T19:59:41.814Z,28.90
2018-07-27T20:02:09.156Z,28.90
2018-07-27T20:04:36.481Z,28.80
2018-07-27T20:07:04.141Z,28.70
2018-07-27T20:09:31.767Z,28.70
2018-07-27T20:12:01.493Z,28.60
2018-07-27T20:14:29.450Z,28.60
2018-07-27T20:16:56.840Z,28.60
2018-07-27T20:19:24.136Z,28.60
2018-07-27T20:21:51.492Z,28.60
2018-07-27T20:24:19.056Z,28.60
2018-07-27T20:26:46.408Z,28.50
2018-07-27T20:29:13.778Z,28.50
2018-07-27T20:31:41.100Z,28.50
2018-07-27T20:34:08.504Z,28.40
2018-07-27T20:36:35.897Z,28.40
2018-07-27T20:39:05.860Z,28.40
2018-07-27T20:41:33.277Z,28.30
2018-07-27T20:44:00.903Z,28.30
2018-07-27T20:46:28.253Z,28.30
2018-07-27T20:48:55.612Z,28.20
2018-07-27T20:51:23.067Z,28.10
2018-07-27T20:53:50.553Z,28.20
2018-07-27T20:56:17.949Z,28.10
2018-07-27T20:58:45.289Z,28.10
2018-07-27T21:01:12.664Z,28.00
2018-07-27T21:03:39.980Z,28.00
2018-07-27T21:06:07.300Z,27.90
2018-07-27T21:08:40.742Z,27.90
2018-07-27T21:11:08.088Z,27.90
2018-07-27T21:13:35.717Z,27.80
2018-07-27T21:16:03.263Z,27.80
2018-07-27T21:18:30.747Z,27.90
2018-07-27T21:20:58.196Z,27.80
2018-07-27T21:23:25.641Z,27.70
2018-07-27T21:25:52.972Z,27.80
2018-07-27T21:28:20.300Z,27.80
2018-07-27T21:30:47.664Z,27.80
2018-07-27T21:33:15.032Z,27.80
2018-07-27T21:35:42.372Z,27.80
2018-07-27T21:38:10.304Z,27.80
2018-07-27T21:40:37.657Z,27.80
2018-07-27T21:43:05.116Z,27.80
2018-07-27T21:45:32.529Z,27.70
2018-07-27T21:47:59.994Z,27.70
2018-07-27T21:50:27.376Z,27.70
2018-07-27T21:52:54.796Z,27.60
2018-07-27T21:55:22.125Z,27.70
2018-07-27T21:57:49.511Z,27.60
2018-07-27T22:00:16.851Z,27.60
2018-07-27T22:02:44.172Z,27.50
2018-07-27T22:05:11.524Z,27.50
2018-07-27T22:07:38.891Z,27.60
2018-07-27T22:10:06.237Z,27.50
2018-07-27T22:12:33.608Z,27.50
2018-07-27T22:15:01.005Z,27.50
2018-07-27T22:17:28.324Z,27.40
2018-07-27T22:19:55.756Z,27.30
2018-07-27T22:22:23.089Z,27.30
2018-07-27T22:24:50.428Z,27.20
2018-07-27T22:27:17.781Z,27.10
2018-07-27T22:29:45.135Z,27.10
2018-07-27T22:32:12.537Z,27.00
2018-07-27T22:34:43.405Z,27.00
2018-07-27T22:37:13.812Z,27.00
2018-07-27T22:39:41.140Z,26.90
2018-07-27T22:42:11.769Z,26.80
2018-07-27T22:44:39.108Z,26.80
2018-07-27T22:47:06.460Z,26.80
2018-07-27T22:49:33.852Z,26.60
2018-07-27T22:52:01.233Z,26.60
2018-07-27T22:54:28.598Z,26.60
2018-07-27T22:56:55.951Z,26.60
2018-07-27T23:01:50.664Z,26.60
2018-07-27T23:04:18.129Z,26.50
2018-07-27T23:06:45.536Z,26.30
2018-07-27T23:09:13.050Z,26.30
2018-07-27T23:11:44.050Z,26.40
2018-07-27T23:14:11.542Z,26.50
2018-07-27T23:16:39.082Z,26.50
2018-07-27T23:19:06.585Z,26.50
2018-07-27T23:21:34.173Z,26.50
2018-07-27T23:24:01.733Z,26.50
2018-07-27T23:26:30.601Z,26.40
2018-07-27T23:28:58.153Z,26.30
2018-07-27T23:31:25.648Z,26.20
2018-07-27T23:33:53.150Z,26.10
2018-07-27T23:36:20.669Z,26.00
2018-07-27T23:38:48.269Z,26.00
2018-07-27T23:41:15.840Z,26.00
2018-07-27T23:43:43.457Z,26.00
2018-07-27T23:46:11.123Z,26.10
2018-07-27T23:48:38.645Z,26.20
2018-07-27T23:51:06.637Z,26.20
2018-07-27T23:53:34.117Z,26.20
2018-07-27T23:56:01.714Z,26.20
2018-07-27T23:58:29.249Z,26.10
